Time;durP1;ratioP1;P1;durP2;ratioP2;P2;SDS_P1;SDS_P2;PMS_P1;PMS_P2;Temp;Humidity;BMP_temperature;BMP_pressure;BME280_temperature;BME280_humidity;BME280_pressure;Samples;Min_cycle;Max_cycle;Signal;HPM_P1;HPM_P2
2023/03/30 00:07:37;;;;;;;4.50;0.70;;;;;;;;;;20981795;28;20221;-68
2023/03/30 00:17:38;;;;;;;2.20;0.90;;;;;;;;;;20985005;28;20282;-68
2023/03/30 00:27:40;;;;;;;1.87;0.73;;;;;;;;;;20997273;28;20282;-68
2023/03/30 00:37:44;;;;;;;3.10;0.60;;;;;;;;;;20930459;28;20279;-68
2023/03/30 00:47:49;;;;;;;2.13;0.60;;;;;;;;;;20910023;28;20245;-68
2023/03/30 00:57:51;;;;;;;6.23;1.10;;;;;;;;;;20912081;28;20616;-68
2023/03/30 01:07:56;;;;;;;3.40;0.80;;;;;;;;;;20779141;22;20231;-68
2023/03/30 01:18:31;;;;;;;4.40;0.60;;;13.70;99.90;;;;;;20715783;28;20211;-68
2023/03/30 01:28:59;;;;;;;1.97;0.80;;;13.80;99.90;;;;;;20727335;28;20239;-68
2023/03/30 01:39:04;;;;;;;1.13;0.50;;;;;;;;;;20714404;28;20199;-68
2023/03/30 01:49:40;;;;;;;1.57;0.60;;;13.80;99.90;;;;;;20713705;28;20768;-68
2023/03/30 01:59:56;;;;;;;0.63;0.50;;;13.70;99.90;;;;;;20712456;28;20281;-68
2023/03/30 02:10:03;;;;;;;1.90;0.67;;;13.80;99.90;;;;;;20712392;28;20285;-68
2023/03/30 02:20:11;;;;;;;1.40;0.67;;;;;;;;;;20695622;28;20697;-68
2023/03/30 02:30:12;;;;;;;1.63;0.80;;;13.60;99.90;;;;;;20727280;28;20289;-68
2023/03/30 02:40:26;;;;;;;2.30;1.00;;;13.80;99.90;;;;;;20709435;28;20211;-68
2023/03/30 02:51:13;;;;;;;4.13;0.80;;;13.70;99.90;;;;;;20709015;28;20223;-68
2023/03/30 03:01:57;;;;;;;2.33;0.90;;;13.80;99.90;;;;;;20706542;28;20269;-68
2023/03/30 03:11:59;;;;;;;1.30;0.80;;;;;;;;;;20626561;28;20228;-68
2023/03/30 03:22:08;;;;;;;1.23;0.60;;;;;;;;;;20641298;28;20215;-68
2023/03/30 03:32:12;;;;;;;2.27;0.70;;;;;;;;;;20722537;28;20230;-67
2023/03/30 03:42:19;;;;;;;2.37;1.17;;;;;;;;;;20706272;28;20253;-66
2023/03/30 03:52:33;;;;;;;2.37;0.70;;;;;;;;;;20712698;28;20219;-68
2023/03/30 04:02:35;;;;;;;3.07;0.93;;;;;;;;;;20721577;28;20274;-67
2023/03/30 04:12:37;;;;;;;4.20;1.10;;;;;;;;;;20736877;28;20800;-67
2023/03/30 04:23:20;;;;;;;1.80;1.00;;;;;;;;;;20724463;28;20215;-67
2023/03/30 04:33:49;;;;;;;4.53;1.00;;;;;;;;;;20695688;28;20231;-67
2023/03/30 04:44:12;;;;;;;1.97;1.03;;;;;;;;;;20736970;28;20281;-67
2023/03/30 04:54:40;;;;;;;2.97;0.77;;;;;;;;;;20702617;28;20246;-67
2023/03/30 05:05:02;;;;;;;2.00;0.90;;;;;;;;;;20714422;28;20234;-66
2023/03/30 05:15:21;;;;;;;1.97;0.90;;;13.60;99.90;;;;;;20717265;28;20219;-66
2023/03/30 05:25:47;;;;;;;3.30;1.50;;;13.30;99.90;;;;;;20728319;28;20302;-66
2023/03/30 05:36:18;;;;;;;2.67;0.90;;;;;;;;;;20719693;28;20295;-66
2023/03/30 05:46:32;;;;;;;3.97;1.07;;;;;;;;;;20730657;28;20230;-66
2023/03/30 05:56:52;;;;;;;3.83;0.83;;;13.60;99.90;;;;;;20715230;28;20211;-66
2023/03/30 06:07:06;;;;;;;2.10;1.07;;;;;;;;;;20712675;28;20594;-66
2023/03/30 06:17:14;;;;;;;2.90;0.67;;;13.10;99.90;;;;;;20706086;28;20679;-66
2023/03/30 06:27:18;;;;;;;3.43;0.73;;;;;;;;;;20721023;28;20214;-66
2023/03/30 06:37:20;;;;;;;0.60;0.50;;;13.40;99.90;;;;;;20710077;28;20632;-66
2023/03/30 06:47:24;;;;;;;1.57;0.60;;;;;;;;;;20694136;28;20211;-65
2023/03/30 06:57:26;;;;;;;0.77;0.57;;;;;;;;;;20708237;28;20616;-66
2023/03/30 07:07:29;;;;;;;2.03;1.07;;;;;;;;;;20707762;28;20286;-66
2023/03/30 07:17:31;;;;;;;0.80;0.60;;;;;;;;;;20703783;28;20780;-66
2023/03/30 07:27:34;;;;;;;1.27;0.70;;;;;;;;;;20703153;28;20322;-66
2023/03/30 07:37:38;;;;;;;0.80;0.50;;;;;;;;;;20736871;22;20248;-67
2023/03/30 07:47:41;;;;;;;0.87;0.33;;;;;;;;;;20799816;28;20698;-67
2023/03/30 07:57:43;;;;;;;1.93;0.80;;;;;;;;;;20798925;28;20696;-68
2023/03/30 08:07:45;;;;;;;0.73;0.60;;;;;;;;;;20816025;28;20759;-67
2023/03/30 08:17:53;;;;;;;1.27;0.60;;;;;;;;;;20791291;28;20219;-67
2023/03/30 08:27:55;;;;;;;1.60;0.80;;;;;;;;;;20815985;28;20284;-67
2023/03/30 08:37:56;;;;;;;1.43;0.50;;;;;;;;;;20800441;28;20267;-67
2023/03/30 08:47:58;;;;;;;0.73;0.43;;;;;;;;;;20830403;28;20230;-68
2023/03/30 08:58:30;;;;;;;1.93;0.90;;;;;;;;;;20827029;28;20288;-73
2023/03/30 09:08:32;;;;;;;0.87;0.50;;;13.50;99.90;;;;;;20756868;28;20729;-69
2023/03/30 09:18:36;;;;;;;1.13;0.60;;;13.40;99.90;;;;;;20828350;28;20265;-69
2023/03/30 09:28:47;;;;;;;1.00;0.50;;;;;;;;;;20826261;28;20218;-69
2023/03/30 09:38:49;;;;;;;0.93;0.67;;;;;;;;;;20793931;28;20299;-69
2023/03/30 09:48:50;;;;;;;1.23;0.70;;;;;;;;;;20813246;28;20222;-69
2023/03/30 09:58:52;;;;;;;1.00;0.80;;;;;;;;;;20823069;28;20206;-69
2023/03/30 10:08:55;;;;;;;1.73;0.90;;;;;;;;;;20823837;28;20218;-69
2023/03/30 10:19:02;;;;;;;2.40;0.80;;;14.60;99.90;;;;;;20822048;28;20280;-69
2023/03/30 10:29:09;;;;;;;1.63;0.90;;;14.50;99.90;;;;;;20821370;28;20710;-69
2023/03/30 10:39:18;;;;;;;1.13;0.60;;;14.50;99.90;;;;;;20821550;28;20285;-69
2023/03/30 10:49:39;;;;;;;2.40;0.60;;;;;;;;;;20822120;28;20215;-70
2023/03/30 10:59:41;;;;;;;2.60;0.60;;;;;;;;;;20818464;28;20521;-71
2023/03/30 11:09:51;;;;;;;1.23;0.80;;;15.50;99.90;;;;;;20821714;28;20253;-69
2023/03/30 11:19:56;;;;;;;1.80;0.60;;;;;;;;;;20819803;28;20678;-70
2023/03/30 11:30:11;;;;;;;0.73;0.50;;;;;;;;;;20801832;28;20272;-70
2023/03/30 11:40:36;;;;;;;2.23;0.70;;;;;;;;;;20801209;28;20276;-70
2023/03/30 11:50:46;;;;;;;3.23;0.57;;;;;;;;;;20808283;28;20230;-70
2023/03/30 12:00:54;;;;;;;0.80;0.50;;;;;;;;;;20816209;28;20245;-71
2023/03/30 12:11:01;;;;;;;1.07;0.53;;;;;;;;;;20810248;28;20269;-70
2023/03/30 12:21:21;;;;;;;0.97;0.60;;;;;;;;;;20820677;28;20260;-70
2023/03/30 12:31:23;;;;;;;1.17;0.53;;;;;;;;;;20833068;28;20214;-70
2023/03/30 12:41:26;;;;;;;0.63;0.30;;;;;;;;;;20833879;28;20705;-70
2023/03/30 12:51:40;;;;;;;1.00;0.50;;;18.10;99.90;;;;;;20833195;28;20207;-70
2023/03/30 13:01:45;;;;;;;0.50;0.30;;;;;;;;;;20833359;28;20232;-70
2023/03/30 13:11:48;;;;;;;1.03;0.50;;;;;;;;;;20829733;28;20284;-68
2023/03/30 13:22:10;;;;;;;2.07;0.40;;;18.40;99.90;;;;;;20823662;28;20230;-70
2023/03/30 13:32:15;;;;;;;0.87;0.40;;;;;;;;;;20816883;28;20241;-67
2023/03/30 13:42:19;;;;;;;1.00;0.47;;;;;;;;;;20888199;23;20579;-66
2023/03/30 13:52:33;;;;;;;0.70;0.30;;;;;;;;;;20867026;28;20222;-67
2023/03/30 14:02:38;;;;;;;0.47;0.30;;;;;;;;;;20865288;28;20260;-67
2023/03/30 14:12:41;;;;;;;0.50;0.37;;;;;;;;;;20896328;28;20799;-67
2023/03/30 14:22:46;;;;;;;1.43;0.30;;;;;;;;;;20879060;28;20214;-66
2023/03/30 14:33:09;;;;;;;1.47;0.47;;;;;;;;;;20852234;28;20580;-67
2023/03/30 14:43:15;;;;;;;0.60;0.40;;;;;;;;;;20853386;28;20283;-67
2023/03/30 14:53:23;;;;;;;0.87;0.30;;;;;;;;;;20865924;28;20572;-66
2023/03/30 15:03:28;;;;;;;1.07;0.80;;;;;;;;;;20885210;28;20198;-67
2023/03/30 15:13:35;;;;;;;0.23;0.20;;;;;;;;;;20868151;28;20680;-67
2023/03/30 15:23:43;;;;;;;1.77;0.83;;;19.00;99.90;;;;;;20861283;28;20213;-67
2023/03/30 15:33:48;;;;;;;0.93;0.73;;;;;;;;;;20863530;28;20877;-66
2023/03/30 15:43:58;;;;;;;3.83;0.73;;;;;;;;;;20823751;28;20222;-67
2023/03/30 15:54:17;;;;;;;2.30;0.50;;;;;;;;;;20869376;28;20761;-66
2023/03/30 16:04:20;;;;;;;5.60;4.10;;;;;;;;;;20870091;28;20205;-66
2023/03/30 16:14:22;;;;;;;14.73;10.43;;;;;;;;;;20868336;28;20218;-67
2023/03/30 16:24:23;;;;;;;15.13;10.70;;;;;;;;;;20850986;28;20217;-67
2023/03/30 16:34:25;;;;;;;8.53;5.83;;;17.50;99.90;;;;;;20856843;28;20576;-67
2023/03/30 16:44:27;;;;;;;1.80;0.80;;;;;;;;;;20872046;28;20292;-68
2023/03/30 16:54:29;;;;;;;0.70;0.40;;;;;;;;;;20871838;28;20240;-68
2023/03/30 17:04:31;;;;;;;1.37;0.43;;;;;;;;;;20861665;28;20209;-67
2023/03/30 17:14:33;;;;;;;2.00;0.60;;;;;;;;;;20839544;28;20210;-67
2023/03/30 17:24:35;;;;;;;2.43;0.50;;;;;;;;;;20855387;28;20260;-67
2023/03/30 17:34:36;;;;;;;1.27;0.50;;;;;;;;;;20866456;28;20585;-67
2023/03/30 17:44:39;;;;;;;2.65;0.70;;;;;;;;;;20869810;28;20222;-67
2023/03/30 17:54:40;;;;;;;2.60;0.73;;;;;;;;;;20868495;28;20845;-67
2023/03/30 18:04:42;;;;;;;1.10;0.50;;;;;;;;;;20867667;28;20598;-67
2023/03/30 18:14:44;;;;;;;0.50;0.37;;;;;;;;;;20866374;28;20248;-66
2023/03/30 18:24:46;;;;;;;0.47;0.30;;;;;;;;;;20865207;28;20213;-67
2023/03/30 18:34:48;;;;;;;1.70;0.83;;;;;;;;;;20881012;28;20685;-67
2023/03/30 18:44:50;;;;;;;1.47;0.70;;;;;;;;;;20864863;28;20214;-67
2023/03/30 18:54:52;;;;;;;1.07;0.47;;;;;;;;;;20864190;28;20213;-68
2023/03/30 19:04:57;;;;;;;0.70;0.30;;;;;;;;;;20867608;28;20197;-67
2023/03/30 19:14:59;;;;;;;1.57;0.60;;;;;;;;;;20868051;28;20209;-67
2023/03/30 19:25:01;;;;;;;0.97;0.63;;;;;;;;;;20884509;28;20225;-66
2023/03/30 19:35:03;;;;;;;1.23;0.40;;;15.80;99.90;;;;;;20884700;28;20213;-67
2023/03/30 19:45:05;;;;;;;0.70;0.40;;;15.60;99.90;;;;;;20846578;28;20222;-67
2023/03/30 19:55:08;;;;;;;0.70;0.40;;;15.10;99.90;;;;;;20839476;28;20559;-67
2023/03/30 20:05:14;;;;;;;4.00;0.57;;;;;;;;;;20826021;28;20279;-68
2023/03/30 20:15:16;;;;;;;1.80;0.60;;;;;;;;;;20909206;28;20275;-68
2023/03/30 20:25:19;;;;;;;1.87;0.47;;;;;;;;;;20883576;22;20280;-69
2023/03/30 20:35:23;;;;;;;1.17;0.50;;;;;;;;;;20820136;28;20206;-69
2023/03/30 20:45:25;;;;;;;1.03;0.53;;;;;;;;;;20831444;28;20234;-68
2023/03/30 20:55:26;;;;;;;1.73;0.40;;;;;;;;;;20830677;28;20202;-69
2023/03/30 21:05:28;;;;;;;4.07;0.70;;;;;;;;;;20829287;28;20551;-69
2023/03/30 21:15:30;;;;;;;0.97;0.40;;;;;;;;;;20829025;28;20677;-69
2023/03/30 21:25:31;;;;;;;1.20;0.57;;;;;;;;;;20828455;28;20218;-69
2023/03/30 21:35:33;;;;;;;0.30;0.30;;;;;;;;;;20827552;28;20211;-69
2023/03/30 21:45:35;;;;;;;3.40;0.60;;;;;;;;;;20808703;28;20214;-69
2023/03/30 21:55:36;;;;;;;1.80;0.50;;;;;;;;;;20808765;28;20608;-69
2023/03/30 22:05:40;;;;;;;1.80;0.60;;;14.30;99.90;;;;;;20824307;28;20285;-69
2023/03/30 22:15:42;;;;;;;1.10;0.50;;;;;;;;;;20792922;28;20215;-69
2023/03/30 22:25:44;;;;;;;0.93;0.50;;;;;;;;;;20776853;28;20231;-69
2023/03/30 22:35:47;;;;;;;0.63;0.40;;;13.70;99.90;;;;;;20773497;28;20210;-68
2023/03/30 22:45:48;;;;;;;0.73;0.30;;;;;;;;;;20804800;28;20218;-69
2023/03/30 22:55:50;;;;;;;0.30;0.30;;;;;;;;;;20819976;28;20251;-69
2023/03/30 23:05:52;;;;;;;1.57;0.43;;;;;;;;;;20802759;28;20219;-69
2023/03/30 23:15:55;;;;;;;2.37;0.40;;;;;;;;;;20820697;28;20735;-69
2023/03/30 23:25:57;;;;;;;1.50;0.77;;;;;;;;;;20818855;28;20238;-69
2023/03/30 23:36:00;;;;;;;0.77;0.30;;;;;;;;;;20801902;28;20230;-69
2023/03/30 23:46:01;;;;;;;0.20;0.20;;;;;;;;;;20819093;28;20219;-69
2023/03/30 23:56:04;;;;;;;2.73;0.50;;;;;;;;;;20818629;28;20399;-69
